createdAt,value
2022-11-02T00:02:19.626Z,88.36
2022-11-02T00:06:22.658Z,88.23
2022-11-02T00:10:26.491Z,88.50
2022-11-02T00:14:31.061Z,88.46
2022-11-02T00:18:34.798Z,88.55
2022-11-02T00:22:38.558Z,88.27
2022-11-02T00:26:41.590Z,88.35
2022-11-02T00:30:46.194Z,88.38
2022-11-02T00:34:49.319Z,88.38
2022-11-02T00:38:52.413Z,88.13
2022-11-02T00:42:55.508Z,88.40
2022-11-02T00:46:59.896Z,88.11
2022-11-02T00:51:03.097Z,88.33
2022-11-02T00:55:08.922Z,88.70
2022-11-02T00:59:12.440Z,88.44
2022-11-02T01:03:16.916Z,88.41
2022-11-02T01:07:20.097Z,88.36
2022-11-02T01:11:25.001Z,88.48
2022-11-02T01:15:28.013Z,88.56
2022-11-02T01:19:32.405Z,88.49
2022-11-02T01:23:36.505Z,88.78
2022-11-02T01:27:39.759Z,88.85
2022-11-02T01:31:43.004Z,88.86
2022-11-02T01:35:47.492Z,88.99
2022-11-02T01:39:50.473Z,89.10
2022-11-02T01:43:56.522Z,89.12
2022-11-02T01:47:59.959Z,89.40
2022-11-02T01:52:08.527Z,89.61
2022-11-02T01:56:13.743Z,89.46
2022-11-02T02:00:19.882Z,89.40
2022-11-02T02:04:25.325Z,89.14
2022-11-02T02:08:30.016Z,89.32
2022-11-02T02:12:34.267Z,89.24
2022-11-02T02:16:58.487Z,89.16
2022-11-02T02:21:18.860Z,89.12
2022-11-02T02:25:45.840Z,88.92
2022-11-02T02:29:59.154Z,88.75
2022-11-02T02:34:10.611Z,88.77
2022-11-02T02:38:20.849Z,88.46
2022-11-02T02:42:29.622Z,88.70
2022-11-02T02:46:41.940Z,88.70
2022-11-02T02:50:50.061Z,88.82
2022-11-02T02:55:00.084Z,88.85
2022-11-02T02:59:07.162Z,88.90
2022-11-02T03:03:12.905Z,88.95
2022-11-02T03:07:21.587Z,89.04
2022-11-02T03:11:25.509Z,89.34
2022-11-02T03:15:37.429Z,89.00
2022-11-02T03:19:50.657Z,89.40
2022-11-02T03:24:00.719Z,89.29
2022-11-02T03:28:12.878Z,89.44
2022-11-02T03:32:23.806Z,89.37
2022-11-02T03:36:34.634Z,89.11
2022-11-02T03:40:44.244Z,88.98
2022-11-02T03:44:51.773Z,89.07
2022-11-02T03:48:57.094Z,89.06
2022-11-02T03:53:08.602Z,89.14
2022-11-02T03:57:19.244Z,89.02
2022-11-02T04:01:23.668Z,89.35
2022-11-02T04:05:31.313Z,89.30
2022-11-02T04:09:38.758Z,89.53
2022-11-02T04:13:59.309Z,89.30
2022-11-02T04:18:22.943Z,89.50
2022-11-02T04:22:43.288Z,89.46
2022-11-02T04:26:54.942Z,89.25
2022-11-02T04:30:59.824Z,89.38
2022-11-02T04:35:06.913Z,89.56
2022-11-02T04:39:10.577Z,89.62
2022-11-02T04:43:15.252Z,89.37
2022-11-02T04:47:18.899Z,89.49
2022-11-02T04:51:23.447Z,89.39
2022-11-02T04:55:28.173Z,89.50
2022-11-02T04:59:32.653Z,89.63
2022-11-02T05:03:35.960Z,89.47
2022-11-02T05:07:39.794Z,89.44
2022-11-02T05:11:43.422Z,89.56
2022-11-02T05:15:49.044Z,89.67
2022-11-02T05:19:52.405Z,89.82
2022-11-02T05:23:56.794Z,89.42
2022-11-02T05:28:00.093Z,89.64
2022-11-02T05:32:05.968Z,89.19
2022-11-02T05:36:11.125Z,89.17
2022-11-02T05:40:17.223Z,88.94
2022-11-02T05:44:20.580Z,89.00
2022-11-02T05:48:26.901Z,88.74
2022-11-02T05:52:30.014Z,88.72
2022-11-02T05:56:33.084Z,88.70
2022-11-02T06:00:36.144Z,88.57
2022-11-02T06:04:40.572Z,88.54
2022-11-02T06:08:43.840Z,88.78
2022-11-02T06:12:47.116Z,88.38
2022-11-02T06:16:50.345Z,88.77
2022-11-02T06:20:54.793Z,88.56
2022-11-02T06:24:57.886Z,88.59
2022-11-02T06:29:00.900Z,88.50
2022-11-02T06:33:06.894Z,88.57
2022-11-02T06:37:11.793Z,88.31
2022-11-02T06:41:15.154Z,88.35
2022-11-02T06:45:18.454Z,88.52
2022-11-02T06:49:21.980Z,88.79
2022-11-02T06:53:26.558Z,88.88
2022-11-02T06:57:29.753Z,89.11
2022-11-02T07:01:33.024Z,88.93
2022-11-02T07:05:38.210Z,89.24
2022-11-02T07:09:42.648Z,89.76
2022-11-02T07:13:46.121Z,89.75
2022-11-02T07:17:49.326Z,89.95
2022-11-02T07:21:52.414Z,90.39
2022-11-02T07:25:57.233Z,90.35
2022-11-02T07:30:00.271Z,90.42
2022-11-02T07:34:03.381Z,90.59
2022-11-02T07:38:08.427Z,90.66
2022-11-02T07:42:12.930Z,91.38
2022-11-02T07:46:19.653Z,91.34
2022-11-02T07:50:24.353Z,91.61
2022-11-02T07:54:27.562Z,91.65
2022-11-02T07:58:32.597Z,91.77
2022-11-02T08:02:35.620Z,91.36
2022-11-02T08:06:38.686Z,91.29
2022-11-02T08:10:42.213Z,91.34
2022-11-02T08:14:46.610Z,91.33
2022-11-02T08:18:49.813Z,91.19
2022-11-02T08:22:53.066Z,91.05
2022-11-02T08:26:56.027Z,90.91
2022-11-02T08:31:00.597Z,91.03
2022-11-02T08:35:04.644Z,90.93
2022-11-02T08:39:07.955Z,91.04
2022-11-02T08:43:12.702Z,90.81
2022-11-02T08:47:18.812Z,90.45
2022-11-02T08:51:21.961Z,90.07
2022-11-02T08:55:25.079Z,89.27
2022-11-02T08:59:28.087Z,89.58
2022-11-02T09:03:32.501Z,89.73
2022-11-02T09:07:35.541Z,89.60
2022-11-02T09:11:38.583Z,89.36
2022-11-02T09:15:42.778Z,89.07
2022-11-02T09:19:47.716Z,88.48
2022-11-02T09:23:50.941Z,88.34
2022-11-02T09:27:55.789Z,88.06
2022-11-02T09:31:58.971Z,87.97
2022-11-02T09:36:05.565Z,88.01
2022-11-02T09:40:10.667Z,87.84
2022-11-02T09:44:19.830Z,87.31
2022-11-02T09:48:28.960Z,87.15
2022-11-02T09:52:37.704Z,87.07
2022-11-02T09:56:42.519Z,86.86
2022-11-02T10:00:50.485Z,86.59
2022-11-02T10:05:15.034Z,86.06
2022-11-02T10:09:27.551Z,85.66
2022-11-02T10:13:37.681Z,85.47
2022-11-02T10:17:43.323Z,83.72
2022-11-02T10:21:49.433Z,82.05
2022-11-02T10:25:54.428Z,79.96
2022-11-02T10:30:02.907Z,79.51
2022-11-02T10:34:21.892Z,77.63
2022-11-02T10:38:37.953Z,75.75
2022-11-02T10:42:57.687Z,75.81
2022-11-02T10:47:10.116Z,73.66
2022-11-02T10:51:15.404Z,72.01
2022-11-02T10:55:27.990Z,70.77
2022-11-02T10:59:32.413Z,71.21
2022-11-02T11:03:35.600Z,69.47
2022-11-02T11:07:39.053Z,70.02
2022-11-02T11:11:42.361Z,68.45
2022-11-02T11:15:52.773Z,68.38
2022-11-02T11:19:59.366Z,68.63
2022-11-02T11:24:20.862Z,67.63
2022-11-02T11:28:26.557Z,68.31
2022-11-02T11:32:32.034Z,67.17
2022-11-02T11:36:37.396Z,67.12
2022-11-02T11:40:45.009Z,67.25
2022-11-02T11:44:57.130Z,66.54
2022-11-02T11:49:01.591Z,65.75
2022-11-02T11:53:23.957Z,66.17
2022-11-02T11:57:31.664Z,65.89
2022-11-02T12:01:41.106Z,65.71
2022-11-02T12:05:54.623Z,65.50
2022-11-02T12:10:07.263Z,65.04
2022-11-02T12:14:21.684Z,64.96
2022-11-02T12:18:40.010Z,64.87
2022-11-02T12:22:58.490Z,64.33
2022-11-02T12:27:17.642Z,63.70
2022-11-02T12:31:30.755Z,63.50
2022-11-02T12:35:45.956Z,63.04
2022-11-02T12:40:06.114Z,62.89
2022-11-02T12:44:28.132Z,62.47
2022-11-02T12:48:42.034Z,62.41
2022-11-02T12:52:55.480Z,62.84
2022-11-02T12:57:00.030Z,62.33
2022-11-02T13:01:13.446Z,62.03
2022-11-02T13:05:21.312Z,62.26
2022-11-02T13:09:29.617Z,61.80
2022-11-02T13:13:40.623Z,61.67
2022-11-02T13:17:48.088Z,61.40
2022-11-02T13:21:55.265Z,61.63
2022-11-02T13:26:02.000Z,61.58
2022-11-02T13:30:14.990Z,61.56
2022-11-02T13:34:24.110Z,59.67
2022-11-02T13:38:32.634Z,60.60
2022-11-02T13:42:48.629Z,59.71
2022-11-02T13:47:10.130Z,58.95
2022-11-02T13:51:24.040Z,57.66
2022-11-02T13:55:41.434Z,58.16
2022-11-02T13:59:47.879Z,58.46
2022-11-02T14:04:00.469Z,58.04
2022-11-02T14:08:07.833Z,57.38
2022-11-02T14:12:29.639Z,57.20
2022-11-02T14:16:44.891Z,57.44
2022-11-02T14:20:49.227Z,56.73
2022-11-02T14:24:56.776Z,57.50
2022-11-02T14:28:59.954Z,57.59
2022-11-02T14:33:07.800Z,57.45
2022-11-02T14:37:29.306Z,57.72
2022-11-02T14:41:57.047Z,57.56
2022-11-02T14:46:13.753Z,57.48
2022-11-02T14:50:19.814Z,57.25
2022-11-02T14:54:24.954Z,57.79
2022-11-02T14:58:34.655Z,58.37
2022-11-02T15:02:43.115Z,58.08
2022-11-02T15:06:53.461Z,58.52
2022-11-02T15:10:58.070Z,58.62
2022-11-02T15:15:07.379Z,58.97
2022-11-02T15:19:39.035Z,59.27
2022-11-02T15:27:58.920Z,59.84
2022-11-02T15:32:04.208Z,59.84
2022-11-02T15:36:14.350Z,60.19
2022-11-02T15:40:23.904Z,61.30
2022-11-02T15:44:42.756Z,61.31
2022-11-02T15:48:53.330Z,61.34
2022-11-02T15:53:26.035Z,61.38
2022-11-02T15:57:42.547Z,61.77
2022-11-02T16:01:48.488Z,62.17
2022-11-02T16:05:52.687Z,62.48
2022-11-02T16:09:55.781Z,62.57
2022-11-02T16:14:17.505Z,62.78
2022-11-02T16:18:26.662Z,62.92
2022-11-02T16:22:29.732Z,63.23
2022-11-02T16:26:33.824Z,63.33
2022-11-02T16:30:38.346Z,62.96
2022-11-02T16:34:43.675Z,63.15
2022-11-02T16:38:57.197Z,63.44
2022-11-02T16:43:00.311Z,63.56
2022-11-02T16:47:18.376Z,63.35
2022-11-02T16:51:24.233Z,63.13
2022-11-02T16:55:37.434Z,63.29
2022-11-02T16:59:51.299Z,63.57
2022-11-02T17:03:54.773Z,63.57
2022-11-02T17:08:05.064Z,63.94
2022-11-02T17:12:14.912Z,64.16
2022-11-02T17:16:18.265Z,64.01
2022-11-02T17:20:24.480Z,63.88
2022-11-02T17:24:35.369Z,63.99
2022-11-02T17:28:45.010Z,63.98
2022-11-02T17:32:48.278Z,64.19
2022-11-02T17:36:52.048Z,64.25
2022-11-02T17:40:57.295Z,64.46
2022-11-02T17:45:00.520Z,64.78
2022-11-02T17:49:03.764Z,64.80
2022-11-02T17:53:07.463Z,64.97
2022-11-02T17:57:13.776Z,65.10
2022-11-02T18:01:18.478Z,65.37
2022-11-02T18:05:24.717Z,65.22
2022-11-02T18:09:29.201Z,65.74
2022-11-02T18:13:33.634Z,66.07
2022-11-02T18:17:36.708Z,65.96
2022-11-02T18:21:39.728Z,66.17
2022-11-02T18:25:42.762Z,66.53
2022-11-02T18:29:47.177Z,66.49
2022-11-02T18:33:52.482Z,67.04
2022-11-02T18:37:55.673Z,66.77
2022-11-02T18:41:58.809Z,67.04
2022-11-02T18:46:03.451Z,67.12
2022-11-02T18:50:08.373Z,67.34
2022-11-02T18:54:12.113Z,66.92
2022-11-02T18:58:15.200Z,67.27
2022-11-02T19:02:19.708Z,67.23
2022-11-02T19:06:41.293Z,67.24
2022-11-02T19:10:46.749Z,66.91
2022-11-02T19:14:53.474Z,67.41
2022-11-02T19:18:58.065Z,67.35
2022-11-02T19:23:01.097Z,67.37
2022-11-02T19:27:04.276Z,67.36
2022-11-02T19:31:08.359Z,67.58
2022-11-02T19:35:12.730Z,67.54
2022-11-02T19:39:15.801Z,67.53
2022-11-02T19:43:18.981Z,67.87
2022-11-02T19:47:22.054Z,67.63
2022-11-02T19:51:28.355Z,68.12
2022-11-02T19:55:31.376Z,68.18
2022-11-02T19:59:35.147Z,68.24
2022-11-02T20:03:39.001Z,68.27
2022-11-02T20:07:43.542Z,68.34
2022-11-02T20:11:48.502Z,68.74
2022-11-02T20:15:57.144Z,68.68
2022-11-02T20:20:00.440Z,69.02
2022-11-02T20:24:05.742Z,69.25
2022-11-02T20:28:08.953Z,69.31
2022-11-02T20:32:12.946Z,69.59
2022-11-02T20:36:17.015Z,69.77
2022-11-02T20:40:21.498Z,69.83
2022-11-02T20:44:25.084Z,69.83
2022-11-02T20:48:28.610Z,70.03
2022-11-02T20:52:31.843Z,70.16
2022-11-02T20:56:36.618Z,70.07
2022-11-02T21:00:39.722Z,70.66
2022-11-02T21:04:42.759Z,70.78
2022-11-02T21:08:45.786Z,70.98
2022-11-02T21:13:08.260Z,70.75
2022-11-02T21:17:11.710Z,71.19
2022-11-02T21:21:16.567Z,71.29
2022-11-02T21:25:19.701Z,71.43
2022-11-02T21:29:24.214Z,71.43
2022-11-02T21:33:27.289Z,71.28
2022-11-02T21:37:30.314Z,71.66
2022-11-02T21:41:38.346Z,71.53
2022-11-02T21:45:51.627Z,71.78
2022-11-02T21:49:54.632Z,71.65
2022-11-02T21:53:57.734Z,71.66
2022-11-02T21:58:00.968Z,71.64
2022-11-02T22:02:05.483Z,71.53
2022-11-02T22:06:09.027Z,71.58
2022-11-02T22:10:12.011Z,71.36
2022-11-02T22:14:15.439Z,71.27
2022-11-02T22:18:19.877Z,71.40
2022-11-02T22:22:23.955Z,71.42
2022-11-02T22:26:29.296Z,71.48
2022-11-02T22:30:34.027Z,71.27
2022-11-02T22:34:38.432Z,71.54
2022-11-02T22:38:54.616Z,71.55
2022-11-02T22:42:58.320Z,71.83
2022-11-02T22:47:01.340Z,71.87
2022-11-02T22:51:06.232Z,72.07
2022-11-02T22:55:10.489Z,72.31
2022-11-02T22:59:14.087Z,72.54
2022-11-02T23:03:17.342Z,73.02
2022-11-02T23:07:21.842Z,73.21
2022-11-02T23:11:27.528Z,73.57
2022-11-02T23:15:31.395Z,73.57
2022-11-02T23:19:37.334Z,73.49
2022-11-02T23:23:59.084Z,73.25
2022-11-02T23:28:19.329Z,73.13
2022-11-02T23:32:28.121Z,73.73
2022-11-02T23:36:31.118Z,73.95
2022-11-02T23:40:35.621Z,74.29
2022-11-02T23:44:38.626Z,73.83
2022-11-02T23:48:44.897Z,74.22
2022-11-02T23:53:07.645Z,73.98
2022-11-02T23:57:12.753Z,73.80
